Time;durP1;ratioP1;P1;durP2;ratioP2;P2;SDS_P1;SDS_P2;PMS_P1;PMS_P2;Temp;Humidity;BMP_temperature;BMP_pressure;BME280_temperature;BME280_humidity;BME280_pressure;Samples;Min_cycle;Max_cycle;Signal;HPM_P1;HPM_P2
2022/01/28 00:02:08;;;;;;;15.18;2.47;;;;;;;4.44;100.00;102813.69;5013003;28;20048;-70
2022/01/28 00:04:34;;;;;;;25.45;3.50;;;;;;;4.36;100.00;102821.19;5014121;28;20037;-71
2022/01/28 00:06:59;;;;;;;14.18;3.00;;;;;;;4.40;100.00;102823.28;5016979;28;20454;-71
2022/01/28 00:09:25;;;;;;;16.50;2.50;;;;;;;4.45;100.00;102830.72;5016459;28;20041;-70
2022/01/28 00:11:50;;;;;;;14.77;3.58;;;;;;;4.42;100.00;102831.16;5015998;28;20049;-71
2022/01/28 00:14:26;;;;;;;20.85;3.25;;;;;;;4.40;100.00;102834.09;5014300;28;20045;-71
2022/01/28 00:38:34;;;;;;;29.08;4.78;;;;;;;4.42;100.00;102831.16;5001641;28;20049;-71
2022/01/28 00:41:00;;;;;;;18.27;4.20;;;;;;;4.47;100.00;102834.88;5000256;28;20120;-70
2022/01/28 00:43:25;;;;;;;23.92;3.63;;;;;;;4.51;100.00;102841.53;4998342;28;20041;-70
2022/01/28 00:45:51;;;;;;;21.33;3.30;;;;;;;4.52;100.00;102853.97;5017918;28;20042;-70
2022/01/28 00:48:16;;;;;;;23.40;4.03;;;;;;;4.41;100.00;102857.34;5020444;28;20037;-69
2022/01/28 00:50:42;;;;;;;24.58;3.38;;;;;;;4.51;100.00;102857.72;4999766;28;20120;-67
2022/01/28 00:53:09;;;;;;;27.00;4.18;;;;;;;4.60;100.00;102860.19;4996411;28;20408;-70
2022/01/28 00:55:34;;;;;;;15.48;3.90;;;;;;;4.52;100.00;102863.97;4997145;28;20061;-70
2022/01/28 00:58:00;;;;;;;20.80;3.63;;;;;;;4.44;100.00;102867.72;4998234;28;20037;-70
2022/01/28 01:00:25;;;;;;;25.20;4.28;;;;;;;4.40;100.00;102866.50;5013558;28;20041;-70
2022/01/28 01:02:50;;;;;;;20.95;3.45;;;;;;;4.42;100.00;102864.41;5017411;28;20049;-70
2022/01/28 01:05:16;;;;;;;23.90;3.97;;;;;;;4.36;100.00;102865.25;5016731;28;20049;-71
2022/01/28 01:07:41;;;;;;;24.75;4.45;;;;;;;4.31;100.00;102873.19;5016318;28;20041;-70
2022/01/28 01:10:08;;;;;;;18.17;3.75;;;;;;;4.43;100.00;102876.88;5014088;28;20049;-71
2022/01/28 01:12:39;;;;;;;32.85;3.70;;;;;;;4.29;100.00;102867.16;5015049;28;20053;-70
2022/01/28 01:15:05;;;;;;;24.40;3.97;;;;;;;4.35;100.00;102873.56;5016386;28;20382;-70
2022/01/28 01:17:39;;;;;;;18.52;3.00;;;;;;;4.21;100.00;102884.41;5016744;28;20073;-69
2022/01/28 01:20:16;;;;;;;30.48;3.97;;;;;;;4.29;100.00;102886.06;5004262;28;20072;-70
2022/01/28 01:22:49;;;;;;;18.50;3.17;;;;;;;4.30;100.00;102879.59;4994762;28;20045;-71
2022/01/28 01:25:22;;;;;;;22.40;2.92;;;;;;;4.35;100.00;102885.19;4995671;28;20041;-70
2022/01/28 01:27:53;;;;;;;15.95;3.33;;;;;;;4.32;100.00;102891.03;4995287;28;20038;-71
2022/01/28 01:30:18;;;;;;;26.58;3.33;;;;;;;4.22;100.00;102901.44;4993584;28;20038;-70
2022/01/28 01:32:44;;;;;;;21.25;3.72;;;;;;;4.27;100.00;102904.31;4993734;28;20045;-71
2022/01/28 01:35:09;;;;;;;17.45;3.47;;;;;;;4.26;100.00;102908.06;4995892;28;20045;-70
2022/01/28 01:37:35;;;;;;;19.35;2.85;;;;;;;4.31;100.00;102908.28;4993478;28;20041;-70
2022/01/28 01:40:00;;;;;;;22.38;3.42;;;;;;;4.24;100.00;102915.56;4995058;28;20529;-70
2022/01/28 01:45:46;;;;;;;28.42;3.50;;;;;;;4.22;100.00;102920.34;4994604;28;20186;-70
2022/01/28 01:53:30;;;;;;;16.23;3.53;;;;;;;4.15;100.00;102938.41;4994702;28;20053;-70
2022/01/28 01:55:56;;;;;;;18.75;3.38;;;;;;;4.11;100.00;102948.81;4992807;28;20117;-71
2022/01/28 01:58:30;;;;;;;20.08;2.55;;;;;;;4.14;100.00;102950.28;4994517;28;20568;-71
2022/01/28 02:00:57;;;;;;;16.40;3.55;;;;;;;4.05;100.00;102947.78;5013689;28;20389;-71
2022/01/28 02:03:23;;;;;;;17.40;3.22;;;;;;;4.03;100.00;102962.50;5013221;28;20368;-70
2022/01/28 02:05:48;;;;;;;18.98;2.97;;;;;;;3.93;100.00;102964.81;5013777;28;20568;-71
2022/01/28 02:08:14;;;;;;;19.38;2.90;;;;;;;3.94;100.00;102975.38;5013628;28;20459;-71
2022/01/28 02:10:39;;;;;;;16.65;3.05;;;;;;;3.89;100.00;102972.47;5013752;28;20049;-71
2022/01/28 02:13:04;;;;;;;27.65;4.32;;;;;;;3.85;100.00;102965.84;5012264;28;20053;-71
2022/01/28 02:15:30;;;;;;;18.02;2.90;;;;;;;3.91;100.00;102959.59;5014122;28;20068;-72
2022/01/28 02:17:58;;;;;;;18.25;3.88;;;;;;;3.94;100.00;102958.38;5014490;28;20517;-70
2022/01/28 02:20:35;;;;;;;22.73;3.78;;;;;;;3.86;100.00;102959.38;5001198;28;20127;-71
2022/01/28 02:23:01;;;;;;;22.33;4.90;;;;;;;3.88;100.00;102965.41;4994813;28;20064;-71
2022/01/28 02:25:30;;;;;;;17.95;3.92;;;;;;;3.82;100.00;102960.84;4993981;28;20033;-71
2022/01/28 02:28:00;;;;;;;18.52;3.30;;;;;;;3.80;100.00;102968.31;4993232;28;20049;-71
2022/01/28 02:30:26;;;;;;;18.60;3.22;;;;;;;3.89;100.00;102977.88;4993520;28;20077;-70
2022/01/28 02:32:57;;;;;;;30.40;5.18;;;;;;;3.88;100.00;102978.09;4992349;28;20061;-72
2022/01/28 02:35:23;;;;;;;23.70;4.75;;;;;;;3.71;100.00;102985.75;4993322;28;20495;-71
2022/01/28 02:37:48;;;;;;;28.00;3.63;;;;;;;3.56;100.00;102983.22;4993986;28;20069;-71
2022/01/28 02:40:14;;;;;;;20.08;3.53;;;;;;;3.52;100.00;102981.94;4994519;28;20046;-72
2022/01/28 02:42:54;;;;;;;19.63;3.72;;;;;;;3.37;100.00;102984.81;4993703;28;20046;-72
2022/01/28 02:45:31;;;;;;;26.40;3.53;;;;;;;3.35;100.00;102978.81;4991957;28;20037;-71
2022/01/28 02:48:01;;;;;;;26.52;5.55;;;;;;;3.50;100.00;102978.66;4993983;28;20129;-71
2022/01/28 02:50:30;;;;;;;29.08;4.47;;;;;;;3.49;100.00;102985.91;4993517;28;20041;-70
2022/01/28 02:53:05;;;;;;;16.15;3.30;;;;;;;3.49;100.00;102988.59;4991712;28;20164;-70
2022/01/28 02:55:36;;;;;;;26.58;4.82;;;;;;;3.48;100.00;102997.72;4993769;28;20045;-70
2022/01/28 02:58:17;;;;;;;24.50;4.13;;;;;;;3.58;100.00;102998.16;4994661;28;20054;-71
2022/01/28 03:00:43;;;;;;;19.00;3.00;;;;;;;3.61;100.00;103003.16;4992702;28;20079;-70
2022/01/28 03:03:09;;;;;;;14.20;3.17;;;;;;;3.53;100.00;102994.44;5009339;28;20038;-70
2022/01/28 03:05:34;;;;;;;23.58;3.60;;;;;;;3.59;100.00;103002.53;4994391;28;20046;-70
2022/01/28 03:08:03;;;;;;;14.80;3.47;;;;;;;3.63;100.00;103005.63;5008342;28;20042;-70
2022/01/28 03:15:34;;;;;;;17.85;2.70;;;;;;;3.72;100.00;103017.91;4993381;28;20517;-70
2022/01/28 03:18:19;;;;;;;14.40;2.80;;;;;;;3.78;100.00;103018.94;4993566;28;20038;-70
2022/01/28 03:20:59;;;;;;;16.38;3.05;;;;;;;3.73;100.00;103024.16;5006301;28;20042;-70
2022/01/28 03:23:24;;;;;;;18.80;3.15;;;;;;;3.77;100.00;103025.41;5013181;28;20049;-70
2022/01/28 03:25:50;;;;;;;18.08;2.67;;;;;;;3.71;100.00;103024.34;5012849;28;20046;-70
2022/01/28 03:28:19;;;;;;;23.70;3.10;;;;;;;3.76;100.00;103026.44;5011423;28;20646;-71
2022/01/28 03:30:44;;;;;;;20.58;3.08;;;;;;;3.88;100.00;103024.81;5013321;28;20497;-70
2022/01/28 03:33:10;;;;;;;23.40;3.58;;;;;;;3.87;100.00;103031.25;5013155;28;20498;-70
2022/01/28 03:35:36;;;;;;;27.10;3.55;;;;;;;3.79;100.00;103036.81;5013431;28;20517;-70
2022/01/28 03:38:06;;;;;;;26.33;3.97;;;;;;;3.83;100.00;103035.38;5011346;28;20072;-70
2022/01/28 03:40:36;;;;;;;24.00;3.97;;;;;;;3.86;100.00;103033.09;5015854;28;20538;-70
2022/01/28 03:43:02;;;;;;;24.08;3.38;;;;;;;3.77;100.00;103038.88;5016144;28;20041;-70
2022/01/28 03:45:28;;;;;;;25.55;3.22;;;;;;;3.75;100.00;103027.47;5015145;28;20041;-71
2022/01/28 03:47:54;;;;;;;13.48;2.67;;;;;;;3.67;100.00;103035.75;5016694;28;20112;-71
2022/01/28 03:50:20;;;;;;;19.90;3.22;;;;;;;3.66;100.00;103052.97;5001494;28;20045;-70
2022/01/28 03:52:45;;;;;;;23.60;3.30;;;;;;;3.63;100.00;103043.41;4995637;28;20073;-70
2022/01/28 03:55:11;;;;;;;22.38;4.15;;;;;;;3.63;100.00;103049.63;4996698;28;20957;-71
2022/01/28 03:57:36;;;;;;;21.52;3.85;;;;;;;3.66;100.00;103042.19;4994439;28;20041;-70
2022/01/28 04:00:04;;;;;;;19.20;2.78;;;;;;;3.70;100.00;103054.25;5009676;28;20321;-71
2022/01/28 04:02:34;;;;;;;17.42;3.20;;;;;;;3.63;100.00;103052.34;5015326;28;20049;-71
2022/01/28 04:06:02;;;;;;;16.73;3.28;;;;;;;3.58;100.00;103060.22;5016092;28;20292;-70
2022/01/28 04:13:21;;;;;;;24.95;3.33;;;;;;;3.61;100.00;103078.69;5015596;28;20130;-71
2022/01/28 04:16:16;;;;;;;22.38;2.78;;;;;;;3.53;100.00;103078.88;5016050;28;20380;-71
2022/01/28 04:18:35;;;;;;;25.85;3.50;;;;;;;3.61;100.00;103078.69;5015644;28;20484;-71
2022/01/28 04:21:00;;;;;;;18.75;2.90;;;;;;;3.55;100.00;103071.41;4997115;28;20037;-71
2022/01/28 04:23:26;;;;;;;24.23;3.72;;;;;;;3.48;100.00;103067.84;4995038;28;20157;-71
2022/01/28 04:25:51;;;;;;;22.33;3.80;;;;;;;3.45;100.00;103084.44;4996843;28;20045;-70
2022/01/28 04:28:16;;;;;;;18.38;2.80;;;;;;;3.38;100.00;103084.41;4994953;28;20048;-70
2022/01/28 04:30:42;;;;;;;15.90;3.33;;;;;;;3.34;100.00;103085.00;4995305;28;20461;-71
2022/01/28 04:33:07;;;;;;;29.33;3.30;;;;;;;3.26;100.00;103079.78;4979010;28;20104;-70
2022/01/28 04:35:33;;;;;;;20.98;3.42;;;;;;;3.26;100.00;103079.78;4999785;28;20048;-70
2022/01/28 04:38:17;;;;;;;24.10;3.80;;;;;;;3.22;100.00;103081.22;5014256;28;20034;-70
2022/01/28 04:40:55;;;;;;;18.88;3.33;;;;;;;3.26;100.00;103071.69;5013915;28;20371;-70
2022/01/28 04:43:28;;;;;;;22.60;3.83;;;;;;;3.29;100.00;103074.00;5008904;28;20598;-69
2022/01/28 04:53:48;;;;;;;23.52;5.15;;;;;;;3.13;100.00;103102.09;5014527;28;20365;-70
2022/01/28 05:03:49;;;;;;;23.45;4.88;;;;;;;3.24;100.00;103108.81;5016339;28;20802;-70
2022/01/28 05:06:48;;;;;;;30.55;3.80;;;;;;;3.38;100.00;103115.94;5016036;28;20053;-70
2022/01/28 05:09:57;;;;;;;19.27;4.10;;;;;;;3.40;100.00;103121.97;5015148;28;20569;-70
2022/01/28 05:26:01;;;;;;;21.73;3.20;;;;;;;3.18;100.00;103142.78;4996514;28;20554;-70
2022/01/28 05:28:26;;;;;;;25.25;3.72;;;;;;;3.13;100.00;103143.38;4995516;28;20528;-70
2022/01/28 05:30:51;;;;;;;27.92;3.90;;;;;;;3.02;100.00;103154.69;4995712;28;20096;-70
2022/01/28 05:33:17;;;;;;;20.10;3.92;;;;;;;3.04;100.00;103144.56;4993823;28;20439;-70
2022/01/28 05:35:42;;;;;;;20.85;3.70;;;;;;;3.05;100.00;103148.91;4992799;28;20041;-70
2022/01/28 05:38:07;;;;;;;16.05;3.88;;;;;;;3.07;100.00;103157.66;5010070;28;20152;-69
2022/01/28 05:40:33;;;;;;;23.88;3.10;;;;;;;3.07;100.00;103165.72;5009338;28;20099;-69
2022/01/28 05:42:58;;;;;;;18.45;3.53;;;;;;;3.05;100.00;103165.09;4994865;28;20390;-70
2022/01/28 05:45:24;;;;;;;32.72;4.20;;;;;;;3.03;100.00;103172.56;4994143;28;20606;-69
2022/01/28 05:47:49;;;;;;;22.33;4.55;;;;;;;3.03;100.00;103172.56;5009371;28;20041;-70
2022/01/28 05:50:14;;;;;;;17.73;3.03;;;;;;;3.06;100.00;103174.84;4994034;28;20561;-70
2022/01/28 05:52:40;;;;;;;22.73;3.92;;;;;;;3.07;100.00;103184.59;4993218;28;20045;-69
2022/01/28 05:55:06;;;;;;;15.27;3.15;;;;;;;3.06;100.00;103191.03;4994447;28;20071;-70
2022/01/28 05:57:31;;;;;;;22.35;3.72;;;;;;;2.96;100.00;103193.22;4994784;28;20069;-69
2022/01/28 05:59:57;;;;;;;28.02;3.85;;;;;;;3.02;100.00;103192.44;5008189;28;20516;-69
2022/01/28 06:02:22;;;;;;;23.30;3.05;;;;;;;3.09;100.00;103204.13;5012483;28;20049;-69
2022/01/28 06:04:47;;;;;;;21.50;4.82;;;;;;;3.03;100.00;103202.22;5014843;28;20037;-70
2022/01/28 06:07:13;;;;;;;19.00;3.47;;;;;;;3.08;100.00;103209.69;5014188;28;20113;-69
2022/01/28 06:09:38;;;;;;;32.17;4.05;;;;;;;3.09;100.00;103214.06;5010806;28;20416;-69
2022/01/28 06:12:04;;;;;;;31.42;3.85;;;;;;;3.21;100.00;103217.06;5011541;28;20048;-70
2022/01/28 06:14:29;;;;;;;27.77;3.83;;;;;;;3.17;100.00;103212.06;5009943;28;20429;-70
2022/01/28 06:16:55;;;;;;;17.23;3.78;;;;;;;3.27;100.00;103213.59;5012205;28;20759;-69
2022/01/28 06:19:20;;;;;;;28.45;4.20;;;;;;;3.32;100.00;103224.63;5012584;28;20068;-70
2022/01/28 06:21:46;;;;;;;16.55;2.88;;;;;;;3.42;100.00;103225.09;5012037;28;20045;-69
2022/01/28 06:24:11;;;;;;;26.83;3.45;;;;;;;3.52;100.00;103222.91;5012369;28;20356;-69
2022/01/28 06:26:37;;;;;;;27.95;4.45;;;;;;;3.66;100.00;103226.47;5012351;28;20049;-69
2022/01/28 06:29:02;;;;;;;17.98;3.22;;;;;;;3.69;100.00;103236.06;5011731;28;20265;-69
2022/01/28 06:31:28;;;;;;;27.42;4.10;;;;;;;3.77;100.00;103238.59;5013185;28;20053;-69
2022/01/28 06:33:53;;;;;;;21.70;3.35;;;;;;;3.75;100.00;103243.34;5013087;28;20049;-70
2022/01/28 06:36:21;;;;;;;20.38;4.45;;;;;;;3.85;100.00;103249.22;5011712;28;20056;-70
2022/01/28 06:38:47;;;;;;;15.50;3.35;;;;;;;3.70;100.00;103251.22;5011055;28;20573;-70
2022/01/28 06:41:12;;;;;;;13.25;2.85;;;;;;;3.82;100.00;103252.34;5011321;28;20041;-70
2022/01/28 06:43:38;;;;;;;11.45;2.85;;;;;;;3.78;100.00;103251.03;5013651;28;20875;-70
2022/01/28 06:46:03;;;;;;;21.02;3.60;;;;;;;3.88;100.00;103262.31;5013570;28;20198;-70
2022/01/28 06:48:29;;;;;;;18.25;3.88;;;;;;;3.90;100.00;103272.91;5013270;28;20446;-69
2022/01/28 06:50:54;;;;;;;22.95;4.03;;;;;;;3.74;100.00;103274.06;5011535;28;20056;-70
2022/01/28 06:53:20;;;;;;;18.65;3.15;;;;;;;3.77;100.00;103276.38;5013724;28;20084;-70
2022/01/28 06:55:46;;;;;;;17.73;3.47;;;;;;;3.66;100.00;103276.91;5013479;28;20405;-70
2022/01/28 06:58:11;;;;;;;30.75;3.70;;;;;;;3.77;100.00;103287.16;5016614;28;20045;-70
2022/01/28 07:00:39;;;;;;;20.00;2.70;;;;;;;3.73;100.00;103288.63;5000427;28;20042;-69
2022/01/28 07:03:09;;;;;;;18.75;3.50;;;;;;;3.62;100.00;103300.78;4999290;28;20056;-69
2022/01/28 07:05:34;;;;;;;23.98;3.58;;;;;;;3.65;100.00;103307.66;4998774;28;20091;-69
2022/01/28 07:08:01;;;;;;;27.67;4.13;;;;;;;3.63;100.00;103313.22;4997266;28;20489;-70
2022/01/28 07:10:26;;;;;;;17.83;4.00;;;;;;;3.69;100.00;103317.00;4995584;28;20081;-69
2022/01/28 07:12:55;;;;;;;23.17;3.13;;;;;;;3.69;100.00;103317.00;5003945;28;20137;-70
2022/01/28 07:15:25;;;;;;;27.38;3.33;;;;;;;3.75;100.00;103321.59;5014028;28;20317;-69
2022/01/28 07:17:55;;;;;;;15.52;3.22;;;;;;;3.71;100.00;103321.19;5019876;28;20137;-70
2022/01/28 07:20:20;;;;;;;17.70;3.05;;;;;;;3.82;100.00;103317.94;5019124;28;20037;-69
2022/01/28 07:22:46;;;;;;;19.83;3.20;;;;;;;3.85;100.00;103319.41;5019099;28;20045;-70
2022/01/28 07:25:11;;;;;;;19.52;3.83;;;;;;;3.83;100.00;103318.75;5018182;28;20428;-69
2022/01/28 07:27:37;;;;;;;24.98;4.03;;;;;;;3.84;100.00;103323.16;5018365;28;20045;-70
2022/01/28 07:30:04;;;;;;;28.52;3.70;;;;;;;3.89;100.00;103317.97;5016399;28;20041;-72
2022/01/28 07:32:29;;;;;;;19.02;3.40;;;;;;;3.92;100.00;103328.38;5018863;28;20044;-69
2022/01/28 07:34:54;;;;;;;18.88;3.92;;;;;;;3.93;100.00;103327.34;5018051;28;20041;-69
2022/01/28 07:37:20;;;;;;;17.38;3.88;;;;;;;3.97;100.00;103325.91;5016769;28;20406;-69
2022/01/28 07:39:45;;;;;;;16.35;2.80;;;;;;;4.01;100.00;103327.19;5016686;28;20095;-70
2022/01/28 07:42:11;;;;;;;20.30;3.65;;;;;;;4.09;100.00;103332.41;5016470;28;20041;-69
2022/01/28 07:44:36;;;;;;;14.23;3.83;;;;;;;4.12;100.00;103335.75;5016604;28;20477;-69
2022/01/28 07:47:02;;;;;;;29.15;3.35;;;;;;;3.96;100.00;103340.47;5017761;28;20119;-70
2022/01/28 07:49:28;;;;;;;21.60;3.95;;;;;;;4.02;100.00;103341.53;5017988;28;20038;-69
2022/01/28 07:51:53;;;;;;;24.42;3.00;;;;;;;4.03;100.00;103335.91;5016928;28;20061;-69
2022/01/28 07:54:19;;;;;;;15.77;3.03;;;;;;;4.11;100.00;103343.03;5014184;28;20080;-69
2022/01/28 07:56:47;;;;;;;18.45;2.92;;;;;;;4.01;100.00;103348.78;5015967;28;20080;-69
2022/01/28 07:59:12;;;;;;;21.65;3.47;;;;;;;4.09;100.00;103362.13;5007704;28;20056;-70
2022/01/28 08:01:37;;;;;;;18.92;3.80;;;;;;;4.12;100.00;103349.28;4996663;28;20033;-70
2022/01/28 08:04:03;;;;;;;16.55;4.68;;;;;;;4.03;100.00;103352.13;4996120;28;20049;-70
2022/01/28 08:06:30;;;;;;;18.02;3.15;;;;;;;4.05;100.00;103366.25;4996927;28;20084;-70
2022/01/28 08:08:57;;;;;;;24.13;3.92;;;;;;;4.27;100.00;103369.69;4996402;28;20045;-70
2022/01/28 08:11:22;;;;;;;23.73;4.32;;;;;;;4.24;100.00;103383.59;4996015;28;20069;-70
2022/01/28 08:13:48;;;;;;;20.60;4.20;;;;;;;4.26;100.00;103381.56;4995480;28;20069;-70
2022/01/28 08:16:13;;;;;;;22.00;3.30;;;;;;;4.34;100.00;103385.97;4995685;28;20120;-70
2022/01/28 08:18:39;;;;;;;28.63;4.03;;;;;;;4.37;100.00;103396.38;4995035;28;20525;-70
2022/01/28 08:21:04;;;;;;;20.45;4.40;;;;;;;4.44;100.00;103389.13;5012063;28;20406;-70
2022/01/28 08:23:30;;;;;;;18.15;3.88;;;;;;;4.41;100.00;103376.03;5014691;28;20513;-70
2022/01/28 08:25:55;;;;;;;13.18;3.35;;;;;;;4.27;100.00;103380.50;5011783;28;20752;-70
2022/01/28 08:28:21;;;;;;;22.27;4.15;;;;;;;4.41;100.00;103386.81;5023790;28;20256;-70
2022/01/28 08:30:46;;;;;;;26.95;3.85;;;;;;;4.36;100.00;103389.28;5009962;28;20053;-70
2022/01/28 08:33:12;;;;;;;17.45;3.67;;;;;;;4.31;100.00;103391.78;5009567;28;20042;-70
2022/01/28 08:35:39;;;;;;;24.83;4.00;;;;;;;4.28;100.00;103386.78;4993078;28;20509;-70
2022/01/28 08:38:15;;;;;;;20.65;4.00;;;;;;;4.28;100.00;103386.78;4994880;28;20049;-70
2022/01/28 08:40:41;;;;;;;26.92;4.82;;;;;;;4.25;100.00;103384.47;5005882;28;20861;-69
2022/01/28 08:43:06;;;;;;;24.60;4.25;;;;;;;4.35;100.00;103384.94;5014095;28;20041;-70
2022/01/28 08:45:32;;;;;;;22.98;3.60;;;;;;;4.34;100.00;103380.56;5013820;28;20128;-69
2022/01/28 08:47:57;;;;;;;21.77;4.35;;;;;;;4.28;100.00;103405.69;5011923;28;20045;-69
2022/01/28 08:50:23;;;;;;;19.00;4.78;;;;;;;4.24;100.00;103412.50;5011499;28;20033;-70
2022/01/28 08:52:48;;;;;;;14.95;3.35;;;;;;;4.30;100.00;103409.84;4994980;28;20053;-70
2022/01/28 08:55:15;;;;;;;23.05;3.83;;;;;;;4.36;100.00;103405.50;5013213;28;20087;-70
2022/01/28 08:57:43;;;;;;;23.10;4.28;;;;;;;4.37;100.00;103411.75;5011415;28;20485;-69
2022/01/28 09:00:14;;;;;;;20.70;3.95;;;;;;;4.45;100.00;103415.13;5013696;28;20098;-71
2022/01/28 09:02:40;;;;;;;18.45;4.15;;;;;;;4.46;100.00;103416.78;5013356;28;20485;-70
2022/01/28 09:05:06;;;;;;;24.10;3.63;;;;;;;4.67;100.00;103417.72;5014731;28;20041;-71
2022/01/28 09:07:31;;;;;;;16.58;4.03;;;;;;;4.63;100.00;103416.47;5013481;28;20087;-70
2022/01/28 09:10:03;;;;;;;18.90;3.90;;;;;;;4.54;100.00;103407.69;5014776;28;20064;-70
2022/01/28 09:13:10;;;;;;;18.95;3.70;;;;;;;4.60;100.00;103412.31;5015186;28;20337;-71
2022/01/28 09:15:40;;;;;;;23.55;3.53;;;;;;;4.67;100.00;103423.97;5014219;28;20087;-71
2022/01/28 09:18:09;;;;;;;25.63;4.45;;;;;;;4.75;100.00;103428.38;5014225;28;20041;-71
2022/01/28 09:20:36;;;;;;;22.65;3.45;;;;;;;4.88;100.00;103427.59;5011857;28;20037;-71
2022/01/28 09:23:03;;;;;;;18.70;4.00;;;;;;;4.97;100.00;103424.53;5014116;28;20466;-71
2022/01/28 09:25:28;;;;;;;14.70;3.08;;;;;;;4.90;100.00;103430.94;5014013;28;20140;-70
2022/01/28 09:27:54;;;;;;;24.52;3.60;;;;;;;4.89;100.00;103432.81;5012095;28;20150;-70
2022/01/28 09:30:19;;;;;;;20.38;3.95;;;;;;;5.16;100.00;103422.06;5014335;28;20107;-71
2022/01/28 09:32:45;;;;;;;21.17;4.15;;;;;;;5.25;100.00;103425.44;5009922;28;20029;-71
2022/01/28 09:35:11;;;;;;;19.52;4.70;;;;;;;5.11;100.00;103422.66;5012639;28;20532;-70
2022/01/28 09:37:36;;;;;;;21.33;4.40;;;;;;;5.31;100.00;103428.13;5011626;28;20504;-71
2022/01/28 09:40:04;;;;;;;22.88;4.82;;;;;;;5.53;100.00;103434.22;5013649;28;20087;-70
2022/01/28 09:42:32;;;;;;;26.17;5.93;;;;;;;5.55;100.00;103434.84;5013311;28;20454;-70
2022/01/28 09:44:59;;;;;;;22.38;5.00;;;;;;;5.76;100.00;103439.25;5013303;28;20124;-70
2022/01/28 09:47:24;;;;;;;19.90;4.88;;;;;;;5.92;100.00;103442.59;5011173;28;20041;-70
2022/01/28 09:49:51;;;;;;;13.93;3.90;;;;;;;6.06;100.00;103445.09;5000603;28;20108;-69
2022/01/28 09:52:17;;;;;;;28.73;4.47;;;;;;;6.18;100.00;103450.72;4993109;28;20064;-70
2022/01/28 09:54:46;;;;;;;24.13;4.82;;;;;;;6.43;100.00;103455.47;4993460;28;20660;-69
2022/01/28 09:57:16;;;;;;;25.95;4.72;;;;;;;6.17;100.00;103456.34;4993559;28;20049;-69
2022/01/28 09:59:42;;;;;;;23.25;4.65;;;;;;;6.20;100.00;103455.94;5004682;28;20037;-70
2022/01/28 10:02:07;;;;;;;20.58;3.97;;;;;;;6.22;100.00;103460.09;5011442;28;20045;-70
2022/01/28 10:04:33;;;;;;;21.25;4.85;;;;;;;6.17;100.00;103456.34;5013043;28;20048;-70
2022/01/28 10:07:08;;;;;;;18.17;4.18;;;;;;;6.04;100.00;103459.91;5012858;28;20487;-70
2022/01/28 10:09:33;;;;;;;20.70;3.65;;;;;;;6.06;100.00;103460.53;5012123;28;20214;-70
2022/01/28 10:12:13;;;;;;;14.77;3.95;;;;;;;6.15;100.00;103458.44;5011871;28;20479;-71
2022/01/28 10:15:02;;;;;;;21.05;3.90;;;;;;;6.26;100.00;103466.78;5011778;28;20081;-70
2022/01/28 10:17:50;;;;;;;20.10;4.57;;;;;;;6.43;100.00;103466.31;5011714;28;20049;-70
2022/01/28 10:20:16;;;;;;;22.67;4.65;;;;;;;6.45;100.00;103461.53;5012244;28;20112;-70
2022/01/28 10:23:04;;;;;;;28.48;4.88;;;;;;;6.54;100.00;103460.25;5010077;28;20331;-71
2022/01/28 10:25:37;;;;;;;17.27;4.40;;;;;;;6.45;100.00;103458.81;5012249;28;20096;-70
2022/01/28 10:28:06;;;;;;;21.30;3.90;;;;;;;6.39;100.00;103459.66;5013358;28;20339;-70
2022/01/28 10:30:40;;;;;;;17.77;4.20;;;;;;;6.50;100.00;103456.31;5013330;28;20045;-71
2022/01/28 10:33:10;;;;;;;31.15;4.78;;;;;;;6.71;100.00;103450.59;5010693;28;20528;-71
2022/01/28 10:35:35;;;;;;;18.95;4.22;;;;;;;6.68;100.00;103469.19;5012648;28;20501;-70
2022/01/28 10:38:02;;;;;;;18.45;4.43;;;;;;;6.74;100.00;103473.75;5012218;28;20045;-71
2022/01/28 10:40:28;;;;;;;31.52;4.72;;;;;;;7.09;100.00;103474.25;5011880;28;20040;-70
2022/01/28 10:42:53;;;;;;;19.40;4.65;;;;;;;6.96;100.00;103477.03;5012726;28;20555;-70
2022/01/28 10:45:28;;;;;;;15.70;3.75;;;;;;;7.00;100.00;103472.81;5013346;28;20369;-70
2022/01/28 10:47:56;;;;;;;24.73;4.28;;;;;;;6.99;100.00;103471.19;5012676;28;20703;-70
2022/01/28 10:50:29;;;;;;;23.15;5.47;;;;;;;7.09;100.00;103466.09;5012199;28;20044;-69
2022/01/28 10:53:06;;;;;;;19.08;4.65;;;;;;;7.02;100.00;103462.59;5011556;28;20840;-70
2022/01/28 10:55:37;;;;;;;24.98;5.00;;;;;;;7.08;100.00;103463.63;5009789;28;20037;-70
2022/01/28 10:58:08;;;;;;;21.20;4.15;;;;;;;7.19;100.00;103469.19;5010070;28;20450;-70
2022/01/28 11:00:37;;;;;;;21.53;4.00;;;;;;;7.06;100.00;103466.53;4991604;28;20061;-70
2022/01/28 11:03:04;;;;;;;26.17;4.57;;;;;;;7.43;100.00;103472.22;4991842;28;20484;-70
2022/01/28 11:05:32;;;;;;;26.48;4.60;;;;;;;7.44;100.00;103473.84;4991006;28;20046;-71
2022/01/28 11:07:58;;;;;;;27.05;4.28;;;;;;;7.58;100.00;103464.59;4991938;28;20837;-71
2022/01/28 11:10:24;;;;;;;19.13;3.58;;;;;;;7.59;100.00;103455.41;4992167;28;20026;-70
2022/01/28 11:12:54;;;;;;;25.52;4.10;;;;;;;7.75;100.00;103453.19;4991756;28;20132;-70
2022/01/28 11:15:20;;;;;;;19.02;4.53;;;;;;;7.70;100.00;103451.13;4991257;28;20526;-71
2022/01/28 11:17:47;;;;;;;20.08;3.47;;;;;;;7.78;100.00;103445.44;4996242;28;20439;-70
2022/01/28 11:20:20;;;;;;;22.60;3.55;;;;;;;7.88;100.00;103436.78;5011447;28;20453;-71
2022/01/28 11:23:04;;;;;;;26.90;4.22;;;;;;;8.16;100.00;103428.19;5011307;28;20038;-70
2022/01/28 11:25:59;;;;;;;18.17;4.13;;;;;;;8.10;100.00;103429.91;5009157;28;20584;-70
2022/01/28 11:28:42;;;;;;;19.25;3.47;;;;;;;8.25;100.00;103426.81;5010728;28;20489;-69
2022/01/28 11:31:08;;;;;;;20.02;3.50;;;;;;;8.12;100.00;103433.22;5011505;28;20037;-71
2022/01/28 11:33:48;;;;;;;21.13;3.38;;;;;;;8.39;100.00;103431.09;4993223;28;20042;-71
2022/01/28 11:36:15;;;;;;;25.75;3.53;;;;;;;8.47;100.00;103419.09;5012158;28;20456;-70
2022/01/28 11:38:43;;;;;;;19.45;3.63;;;;;;;8.66;100.00;103427.25;5010447;28;20040;-71
2022/01/28 11:41:10;;;;;;;24.48;3.53;;;;;;;8.77;100.00;103423.78;5012254;28;20660;-71
2022/01/28 11:43:47;;;;;;;19.38;3.78;;;;;;;9.01;100.00;103416.56;5010533;28;20122;-70
2022/01/28 11:46:18;;;;;;;28.40;4.22;;;;;;;8.95;100.00;103418.31;5011585;28;20049;-71
2022/01/28 11:48:56;;;;;;;17.10;3.20;;;;;;;8.88;100.00;103403.16;5008433;28;20045;-71
2022/01/28 11:51:44;;;;;;;18.38;3.08;;;;;;;9.15;100.00;103409.03;4996959;28;20051;-71
2022/01/28 11:54:15;;;;;;;17.40;3.25;;;;;;;8.92;100.00;103416.03;5008593;28;20033;-71
2022/01/28 11:57:10;;;;;;;21.50;3.58;;;;;;;9.21;100.00;103419.00;5009010;28;20126;-71
2022/01/28 11:59:35;;;;;;;21.40;3.25;;;;;;;9.37;100.00;103415.63;5010573;28;20123;-71
2022/01/28 12:02:00;;;;;;;16.83;3.40;;;;;;;9.26;100.00;103422.69;5014735;28;20464;-71
2022/01/28 12:07:00;;;;;;;17.17;3.15;;;;;;;8.88;100.00;103408.59;5013506;28;20045;-70
2022/01/28 12:09:28;;;;;;;13.13;3.15;;;;;;;8.78;100.00;103411.81;5015388;28;20037;-70
2022/01/28 12:11:54;;;;;;;13.32;2.35;;;;;;;8.80;100.00;103396.13;5013391;28;20275;-71
2022/01/28 12:14:55;;;;;;;16.75;3.63;;;;;;;8.93;100.00;103390.50;5013431;28;20049;-70
2022/01/28 12:17:29;;;;;;;28.45;3.63;;;;;;;9.14;100.00;103396.50;5011230;28;20066;-71
2022/01/28 12:20:13;;;;;;;11.50;2.65;;;;;;;8.91;100.00;103392.63;5008817;28;20080;-70
2022/01/28 12:23:22;;;;;;;13.00;3.03;;;;;;;8.38;100.00;103398.69;4992196;28;20580;-70
2022/01/28 12:25:50;;;;;;;13.88;3.28;;;;;;;8.57;100.00;103397.63;5005752;28;20931;-71
2022/01/28 12:28:21;;;;;;;21.40;3.75;;;;;;;8.53;100.00;103393.72;5013285;28;20052;-70
2022/01/28 12:30:59;;;;;;;20.23;3.55;;;;;;;8.67;100.00;103385.38;5011513;28;20041;-70
2022/01/28 12:33:26;;;;;;;17.13;3.25;;;;;;;8.73;100.00;103376.34;5013798;28;20048;-70
2022/01/28 12:35:55;;;;;;;16.52;2.70;;;;;;;8.66;100.00;103372.84;5014440;28;20037;-71
2022/01/28 12:38:23;;;;;;;15.75;2.63;;;;;;;8.74;100.00;103370.66;5014543;28;20517;-71